UAE501 OMDB-VABB
Flight info
| Callsign | UAE501 |
|---|---|
| Flight time | N/A |
| Altitude | 41000 |
| Route | IVURO M677 LALDO B505 NADSO A777 VAXIM L301 KARKU M638 EXOLU POKON2A |
| Aircraft | A338/H-SADE1E2E3GHIJ3J5M1P2RWXY/LB2D1 |
Departure
| Time | 2026-05-04 14:56 |
|---|---|
| Airport | Dubai International Airport (OMDB) |
Arrival
| Time | N/A |
|---|---|
| Airport | Chhatrapati Shivaji Maharaj International Airport (VABB) |
| Time | Latitude | Longitude | Altitude | Speed | Heading |
|---|---|---|---|---|---|
| 2026-05-04 14:02 | 25.24850 | 55.36371 | 27 ft | 0 kts | 212° |
| 2026-05-04 14:04 | 25.24777 | 55.36501 | 28 ft | 0 kts | 211° |
| 2026-05-04 14:32 | 25.24793 | 55.36510 | 27 ft | 2 kts | 207° |
| 2026-05-04 14:32 | 25.24809 | 55.36517 | 27 ft | 2 kts | 200° |
| 2026-05-04 14:32 | 25.24825 | 55.36520 | 24 ft | 2 kts | 189° |
| 2026-05-04 14:32 | 25.24841 | 55.36521 | 25 ft | 2 kts | 175° |
| 2026-05-04 14:33 | 25.24857 | 55.36516 | 26 ft | 2 kts | 158° |
| 2026-05-04 14:33 | 25.24872 | 55.36506 | 26 ft | 2 kts | 143° |
| 2026-05-04 14:33 | 25.24883 | 55.36493 | 26 ft | 2 kts | 131° |
| 2026-05-04 14:33 | 25.24891 | 55.36480 | 25 ft | 1 kts | 124° |
| 2026-05-04 14:34 | 25.24892 | 55.36478 | 24 ft | 0 kts | 123° |
| 2026-05-04 14:36 | 25.24892 | 55.36479 | 24 ft | 0 kts | 122° |
| 2026-05-04 14:37 | 25.24890 | 55.36484 | 25 ft | 1 kts | 108° |
| 2026-05-04 14:37 | 25.24889 | 55.36489 | 27 ft | 1 kts | 87° |
| 2026-05-04 14:37 | 25.24890 | 55.36494 | 27 ft | 1 kts | 64° |
| 2026-05-04 14:37 | 25.24895 | 55.36501 | 27 ft | 1 kts | 27° |
| 2026-05-04 14:38 | 25.24906 | 55.36502 | 27 ft | 0 kts | 336° |
| 2026-05-04 14:38 | 25.24916 | 55.36494 | 27 ft | 0 kts | 299° |
| 2026-05-04 14:38 | 25.24920 | 55.36484 | 27 ft | 2 kts | 297° |
| 2026-05-04 14:38 | 25.24934 | 55.36454 | 27 ft | 7 kts | 297° |
| 2026-05-04 14:39 | 25.24961 | 55.36398 | 27 ft | 10 kts | 295° |
| 2026-05-04 14:39 | 25.24994 | 55.36319 | 27 ft | 13 kts | 295° |
| 2026-05-04 14:39 | 25.25034 | 55.36227 | 27 ft | 14 kts | 299° |
| 2026-05-04 14:40 | 25.25130 | 55.36065 | 27 ft | 16 kts | 303° |
| 2026-05-04 14:40 | 25.25204 | 55.35936 | 27 ft | 0 kts | 302° |
| 2026-05-04 14:40 | 25.25210 | 55.35925 | 27 ft | 4 kts | 300° |
| 2026-05-04 14:40 | 25.25224 | 55.35899 | 27 ft | 7 kts | 300° |
| 2026-05-04 14:41 | 25.25254 | 55.35840 | 27 ft | 10 kts | 300° |
| 2026-05-04 14:41 | 25.25294 | 55.35763 | 27 ft | 13 kts | 301° |
| 2026-05-04 14:41 | 25.25401 | 55.35575 | 27 ft | 11 kts | 302° |
| 2026-05-04 14:42 | 25.25484 | 55.35429 | 27 ft | 13 kts | 301° |
| 2026-05-04 14:42 | 25.25529 | 55.35348 | 27 ft | 11 kts | 301° |
| 2026-05-04 14:42 | 25.25569 | 55.35276 | 27 ft | 11 kts | 301° |
| 2026-05-04 14:43 | 25.25582 | 55.35254 | 27 ft | 1 kts | 302° |
| 2026-05-04 14:43 | 25.25592 | 55.35235 | 27 ft | 4 kts | 302° |
| 2026-05-04 14:43 | 25.25594 | 55.35231 | 27 ft | 0 kts | 302° |
| 2026-05-04 14:45 | 25.25605 | 55.35213 | 27 ft | 5 kts | 302° |
| 2026-05-04 14:45 | 25.25633 | 55.35172 | 27 ft | 8 kts | 323° |
| 2026-05-04 14:46 | 25.25683 | 55.35162 | 27 ft | 9 kts | 8° |
| 2026-05-04 14:46 | 25.25754 | 55.35198 | 27 ft | 14 kts | 32° |
| 2026-05-04 14:46 | 25.25850 | 55.35266 | 27 ft | 19 kts | 32° |
| 2026-05-04 14:46 | 25.25944 | 55.35333 | 27 ft | 11 kts | 37° |
| 2026-05-04 14:47 | 25.25995 | 55.35400 | 27 ft | 12 kts | 68° |
| 2026-05-04 14:47 | 25.26008 | 55.35487 | 27 ft | 10 kts | 95° |
| 2026-05-04 14:47 | 25.25982 | 55.35572 | 27 ft | 11 kts | 120° |
| 2026-05-04 14:47 | 25.25941 | 55.35644 | 27 ft | 13 kts | 122° |
| 2026-05-04 14:48 | 25.25884 | 55.35744 | 27 ft | 18 kts | 122° |
| 2026-05-04 14:48 | 25.25814 | 55.35870 | 27 ft | 19 kts | 121° |
| 2026-05-04 14:48 | 25.25738 | 55.36007 | 27 ft | 23 kts | 122° |
| 2026-05-04 14:48 | 25.25650 | 55.36164 | 27 ft | 24 kts | 122° |
| 2026-05-04 14:49 | 25.25610 | 55.36235 | 27 ft | 6 kts | 122° |
| 2026-05-04 14:49 | 25.25577 | 55.36292 | 27 ft | 11 kts | 122° |
| 2026-05-04 14:49 | 25.25525 | 55.36383 | 27 ft | 16 kts | 122° |
| 2026-05-04 14:49 | 25.25458 | 55.36500 | 27 ft | 20 kts | 122° |
| 2026-05-04 14:50 | 25.25377 | 55.36642 | 27 ft | 23 kts | 122° |
| 2026-05-04 14:50 | 25.25295 | 55.36785 | 27 ft | 13 kts | 122° |
| 2026-05-04 14:50 | 25.25247 | 55.36876 | 27 ft | 16 kts | 120° |
| 2026-05-04 14:50 | 25.25184 | 55.36993 | 27 ft | 19 kts | 121° |
| 2026-05-04 14:51 | 25.25114 | 55.37122 | 27 ft | 16 kts | 122° |
| 2026-05-04 14:51 | 25.25048 | 55.37235 | 27 ft | 19 kts | 123° |
| 2026-05-04 14:51 | 25.24971 | 55.37367 | 27 ft | 21 kts | 122° |
| 2026-05-04 14:51 | 25.24939 | 55.37424 | 27 ft | 2 kts | 121° |
| 2026-05-04 14:52 | 25.24920 | 55.37459 | 27 ft | 8 kts | 121° |
| 2026-05-04 14:52 | 25.24879 | 55.37532 | 27 ft | 14 kts | 121° |
| 2026-05-04 14:52 | 25.24831 | 55.37620 | 27 ft | 13 kts | 121° |
| 2026-05-04 14:52 | 25.24787 | 55.37701 | 27 ft | 12 kts | 122° |
| 2026-05-04 14:53 | 25.24777 | 55.37719 | 27 ft | 0 kts | 122° |
| 2026-05-04 14:53 | 25.24772 | 55.37726 | 27 ft | 4 kts | 123° |
| 2026-05-04 14:53 | 25.24744 | 55.37774 | 27 ft | 10 kts | 123° |
| 2026-05-04 14:54 | 25.24704 | 55.37843 | 27 ft | 3 kts | 122° |
| 2026-05-04 14:54 | 25.24684 | 55.37879 | 27 ft | 9 kts | 122° |
| 2026-05-04 14:54 | 25.24676 | 55.37939 | 27 ft | 6 kts | 69° |
| 2026-05-04 14:54 | 25.24711 | 55.37979 | 27 ft | 9 kts | 33° |
| 2026-05-04 14:55 | 25.24774 | 55.38016 | 27 ft | 8 kts | 1° |
| 2026-05-04 14:55 | 25.24826 | 55.37986 | 27 ft | 10 kts | 312° |
| 2026-05-04 14:55 | 25.24852 | 55.37942 | 27 ft | 0 kts | 301° |
| 2026-05-04 14:55 | 25.24895 | 55.37863 | 27 ft | 49 kts | 301° |
| 2026-05-04 14:56 | 25.25254 | 55.37201 | 27 ft | 145 kts | 300° |
| 2026-05-04 14:56 | 25.25865 | 55.36077 | 282 ft | 183 kts | 300° |
| 2026-05-04 14:56 | 25.26541 | 55.34879 | 1075 ft | 177 kts | 299° |
| 2026-05-04 14:56 | 25.27101 | 55.33657 | 2052 ft | 180 kts | 294° |
| 2026-05-04 14:57 | 25.27560 | 55.32355 | 3040 ft | 193 kts | 290° |
| 2026-05-04 14:57 | 25.28119 | 55.30914 | 3637 ft | 216 kts | 303° |
| 2026-05-04 14:57 | 25.29186 | 55.29598 | 3956 ft | 247 kts | 327° |
| 2026-05-04 14:57 | 25.30904 | 55.28862 | 4012 ft | 285 kts | 351° |
| 2026-05-04 14:58 | 25.33006 | 55.28874 | 4004 ft | 319 kts | 6° |
| 2026-05-04 14:58 | 25.35241 | 55.29204 | 4595 ft | 322 kts | 7° |
| 2026-05-04 14:58 | 25.37404 | 55.29486 | 5635 ft | 311 kts | 8° |
| 2026-05-04 14:58 | 25.39497 | 55.30179 | 6373 ft | 312 kts | 27° |
| 2026-05-04 14:59 | 25.41154 | 55.31578 | 7481 ft | 299 kts | 45° |
| 2026-05-04 14:59 | 25.42402 | 55.33323 | 8647 ft | 284 kts | 49° |
| 2026-05-04 14:59 | 25.44745 | 55.36517 | 11051 ft | 250 kts | 47° |
| 2026-05-04 15:00 | 25.45849 | 55.37997 | 11936 ft | 250 kts | 47° |
| 2026-05-04 15:00 | 25.46978 | 55.39516 | 12467 ft | 264 kts | 47° |
| 2026-05-04 15:00 | 25.48183 | 55.41144 | 12779 ft | 285 kts | 48° |